Gruetli Laager, Tennessee
Current Conditions -  °F | °C
As of 10:15 AM on Sunday 25 Jan 2015 (Local Time) from KRNC Reporting Station
Clear Clear  
Wind Chill: 50°   Ceiling: Unl
Heat Index: 50°   Visibility: 10mi
Dew Point: 36°   Wind: 12mph
Humidity: 58%   Direction: 210°SSW
Pressure: 29.78"   Gusts: NA
Location:  35.37°N, 85.66°W
Report Text: KRNC 251615Z AUTO 21010KT 10SM CLR 10/02 A2978 RMK
Loading
Personal Weather Stations






























Interactive Weather Map New forecast layout! Learn more

10-Day Weather Forecast

Advertisements
Track Severe Weather on mobile